Columbia Station, Ohio
Current Conditions -  °F | °C
As of 8:51 AM on Sunday 23 Nov 2014 (Local Time) from KCLE Reporting Station
Overcast Overcast  
Wind Chill: 40°   Ceiling: 4500
Heat Index: 45°   Visibility: 10mi
Dew Point: 41°   Wind: 9mph
Humidity: 86%   Direction: 170°S
Pressure: 30.03"   Gusts: NA
Location:  41.31°N, 81.95°W
Report Text: KCLE 231351Z 17008KT 10SM OVC045 07/05 A3003 RMK AO2 RAE51 SLP174 P0000 T00720050 $
Loading
Personal Weather Stations






























Interactive Weather Map New forecast layout! Learn more

10-Day Weather Forecast

Advertisements
Track Severe Weather on mobile